Time;durP1;ratioP1;P1;durP2;ratioP2;P2;SDS_P1;SDS_P2;PMS_P1;PMS_P2;Temp;Humidity;BMP_temperature;BMP_pressure;BME280_temperature;BME280_humidity;BME280_pressure;Samples;Min_cycle;Max_cycle;Signal;HPM_P1;HPM_P2
2023/07/16 00:00:26;;;;;;;7.22;2.38;;;;;;;-143.49;100.00;65027.28;5096079;28;20070;-72
2023/07/16 00:02:51;;;;;;;13.10;2.58;;;;;;;-143.49;100.00;65027.28;5096031;28;20099;-72
2023/07/16 00:05:16;;;;;;;8.35;2.28;;;;;;;-143.49;100.00;65027.28;5096086;28;20492;-72
2023/07/16 00:07:42;;;;;;;9.02;1.92;;;;;;;-143.49;100.00;65027.28;5095813;28;20051;-72
2023/07/16 00:10:07;;;;;;;9.30;2.20;;;;;;;-143.49;100.00;65027.28;5095900;28;20164;-72
2023/07/16 00:12:33;;;;;;;10.85;2.47;;;;;;;-143.49;100.00;65027.28;5077596;28;20032;-71
2023/07/16 00:14:58;;;;;;;14.30;2.50;;;;;;;-143.49;100.00;65027.28;5095697;28;20027;-71
2023/07/16 00:17:23;;;;;;;8.32;2.47;;;;;;;-143.49;100.00;65027.28;5095772;28;20016;-73
2023/07/16 00:19:49;;;;;;;7.60;2.67;;;;;;;-143.49;100.00;65027.28;5095628;28;20493;-72
2023/07/16 00:22:14;;;;;;;10.05;2.40;;;;;;;-143.49;100.00;65027.28;5095547;28;20459;-72
2023/07/16 00:24:39;;;;;;;10.40;2.40;;;;;;;-143.49;100.00;65027.28;5095074;28;20020;-72
2023/07/16 00:27:04;;;;;;;10.77;2.50;;;;;;;-143.49;100.00;65027.28;5095578;28;20020;-72
2023/07/16 00:29:30;;;;;;;7.72;2.28;;;;;;;-143.49;100.00;65027.28;5095504;28;20027;-72
2023/07/16 00:31:55;;;;;;;10.48;2.58;;;;;;;-143.49;100.00;65027.28;5095433;28;20543;-72
2023/07/16 00:34:20;;;;;;;8.05;2.38;;;;;;;-143.49;100.00;65027.28;5095284;28;20038;-72
2023/07/16 00:36:46;;;;;;;5.53;2.47;;;;;;;-143.49;100.00;65027.28;5095502;28;20028;-72
2023/07/16 00:39:11;;;;;;;15.43;2.83;;;;;;;-143.49;100.00;65027.28;5095344;28;20028;-72
2023/07/16 00:41:36;;;;;;;9.07;2.63;;;;;;;-143.49;100.00;65027.28;5095333;28;20023;-72
2023/07/16 00:44:02;;;;;;;14.63;2.83;;;;;;;-143.49;100.00;65027.28;5095186;28;20122;-72
2023/07/16 00:46:28;;;;;;;11.13;2.83;;;;;;;-143.49;100.00;65027.28;5093864;28;20036;-72
2023/07/16 00:48:53;;;;;;;9.80;2.92;;;;;;;-143.49;100.00;65027.28;5095066;28;20028;-72
2023/07/16 00:51:22;;;;;;;10.43;2.63;;;;;;;-143.49;100.00;65027.28;5076816;28;20471;-71
2023/07/16 00:53:48;;;;;;;12.57;3.00;;;;;;;-143.49;100.00;65027.28;5094874;28;20040;-71
2023/07/16 00:56:18;;;;;;;10.95;2.97;;;;;;;-143.49;100.00;65027.28;5094909;28;20028;-71
2023/07/16 00:58:43;;;;;;;9.10;2.85;;;;;;;-143.49;100.00;65027.28;5095074;28;20031;-71
2023/07/16 01:01:09;;;;;;;13.32;2.83;;;;;;;-143.49;100.00;65027.28;5094838;28;20107;-72
2023/07/16 01:03:35;;;;;;;10.88;2.60;;;;;;;-143.49;100.00;65027.28;5095134;28;20039;-72
2023/07/16 01:06:11;;;;;;;10.07;2.63;;;;;;;-143.49;100.00;65027.28;5076557;28;20041;-72
2023/07/16 01:08:48;;;;;;;7.93;2.85;;;;;;;-143.49;100.00;65027.28;5094407;28;20078;-72
2023/07/16 01:11:15;;;;;;;9.45;3.08;;;;;;;-143.49;100.00;65027.28;5094633;28;20030;-72
2023/07/16 01:13:40;;;;;;;9.32;2.70;;;;;;;-143.49;100.00;65027.28;5076374;28;20115;-73
2023/07/16 01:16:06;;;;;;;15.50;3.40;;;;;;;-143.49;100.00;65027.28;5076475;28;20067;-72
2023/07/16 01:18:31;;;;;;;11.35;2.85;;;;;;;-143.49;100.00;65027.28;5094469;28;20050;-72
2023/07/16 01:20:57;;;;;;;7.93;3.13;;;;;;;-143.49;100.00;65027.28;5076178;28;20067;-72
2023/07/16 01:23:34;;;;;;;16.90;3.50;;;;;;;-143.49;100.00;65027.28;5076270;28;20046;-72
2023/07/16 01:26:08;;;;;;;13.20;3.47;;;;;;;-143.49;100.00;65027.28;5094394;28;20382;-72
2023/07/16 01:28:52;;;;;;;11.10;3.47;;;;;;;-143.49;100.00;65027.28;5094328;28;20081;-72
2023/07/16 01:31:17;;;;;;;9.35;2.83;;;;;;;-143.49;100.00;65027.28;5094204;28;20024;-72
2023/07/16 01:33:45;;;;;;;11.45;3.25;;;;;;;-143.49;100.00;65027.28;5094108;28;20028;-72
2023/07/16 01:36:11;;;;;;;10.23;3.13;;;;;;;-143.49;100.00;65027.28;5093293;28;20020;-72
2023/07/16 01:38:36;;;;;;;9.57;3.10;;;;;;;-143.49;100.00;65027.28;5094088;28;20058;-72
2023/07/16 01:41:02;;;;;;;11.85;3.20;;;;;;;-143.49;100.00;65027.28;5094213;28;20067;-72
2023/07/16 01:43:27;;;;;;;11.02;3.10;;;;;;;-143.49;100.00;65027.28;5094122;28;20031;-72
2023/07/16 01:45:53;;;;;;;12.73;3.50;;;;;;;-143.49;100.00;65027.28;5075912;28;20056;-73
2023/07/16 01:48:32;;;;;;;12.27;3.00;;;;;;;-143.49;100.00;65027.28;5093814;28;20025;-72
2023/07/16 01:50:57;;;;;;;10.25;3.55;;;;;;;-143.49;100.00;65027.28;5093919;28;20032;-73
2023/07/16 01:53:22;;;;;;;10.18;3.60;;;;;;;-143.49;100.00;65027.28;5093871;28;20053;-72
2023/07/16 01:55:48;;;;;;;12.15;3.35;;;;;;;-143.49;100.00;65027.28;5093842;28;20380;-73
2023/07/16 01:58:13;;;;;;;15.23;3.47;;;;;;;-143.49;100.00;65027.28;5093778;28;20387;-71
2023/07/16 02:00:39;;;;;;;13.43;3.65;;;;;;;-143.49;100.00;65027.28;5093667;28;20023;-72
2023/07/16 02:03:04;;;;;;;9.18;3.47;;;;;;;-143.49;100.00;65027.28;5075485;28;20451;-72
2023/07/16 02:05:29;;;;;;;19.25;4.32;;;;;;;-143.49;100.00;65027.28;5075466;28;20483;-72
2023/07/16 02:07:55;;;;;;;13.57;3.65;;;;;;;-143.49;100.00;65027.28;5093468;28;20048;-72
2023/07/16 02:10:20;;;;;;;13.18;4.35;;;;;;;-143.49;100.00;65027.28;5093684;28;20487;-72
2023/07/16 02:12:46;;;;;;;9.75;3.28;;;;;;;-143.49;100.00;65027.28;5075398;28;20024;-72
2023/07/16 02:15:11;;;;;;;12.98;3.75;;;;;;;-143.49;100.00;65027.28;5075432;28;20020;-72
2023/07/16 02:17:36;;;;;;;17.02;3.90;;;;;;;-143.49;100.00;65027.28;5075470;28;20020;-72
2023/07/16 02:20:05;;;;;;;14.80;3.90;;;;;;;-143.49;100.00;65027.28;5093591;28;20062;-72
2023/07/16 02:22:30;;;;;;;13.00;3.58;;;;;;;-143.49;100.00;65027.28;5093480;28;20020;-73
2023/07/16 02:24:56;;;;;;;13.73;4.05;;;;;;;-143.49;100.00;65027.28;5075105;28;20107;-72
2023/07/16 02:27:21;;;;;;;12.40;4.03;;;;;;;-143.49;100.00;65027.28;5093433;28;20027;-73
2023/07/16 02:29:46;;;;;;;11.93;3.92;;;;;;;-143.49;100.00;65027.28;5092992;28;20020;-72
2023/07/16 02:32:12;;;;;;;11.80;3.97;;;;;;;-143.49;100.00;65027.28;5092695;28;20468;-72
2023/07/16 02:34:37;;;;;;;10.77;4.05;;;;;;;-143.49;100.00;65027.28;5092576;28;20024;-73
2023/07/16 02:37:03;;;;;;;10.38;3.67;;;;;;;-143.49;100.00;65027.28;5092618;28;20502;-73
2023/07/16 02:39:28;;;;;;;15.48;3.90;;;;;;;-143.49;100.00;65027.28;5092659;28;20522;-71
2023/07/16 02:41:53;;;;;;;13.10;4.43;;;;;;;-143.49;100.00;65027.28;5074442;28;20127;-71
2023/07/16 02:44:19;;;;;;;10.75;3.83;;;;;;;-143.49;100.00;65027.28;5092798;28;20469;-70
2023/07/16 02:46:44;;;;;;;14.98;4.53;;;;;;;-143.49;100.00;65027.28;5093240;28;20024;-71
2023/07/16 02:49:09;;;;;;;13.82;3.70;;;;;;;-143.49;100.00;65027.28;5097326;28;20490;-71
2023/07/16 02:51:35;;;;;;;12.68;3.90;;;;;;;-143.49;100.00;65027.28;5079361;28;20024;-72
2023/07/16 02:54:00;;;;;;;21.67;4.65;;;;;;;-143.49;100.00;65027.28;5079323;28;20031;-72
2023/07/16 02:56:25;;;;;;;12.82;3.97;;;;;;;-143.49;100.00;65027.28;5097319;28;20032;-72
2023/07/16 02:58:51;;;;;;;14.38;4.30;;;;;;;-143.49;100.00;65027.28;5097260;28;20418;-71
2023/07/16 03:01:16;;;;;;;12.15;4.25;;;;;;;-143.49;100.00;65027.28;5097165;28;20020;-72
2023/07/16 03:03:41;;;;;;;12.02;3.97;;;;;;;-143.49;100.00;65027.28;5078912;28;20110;-72
2023/07/16 03:06:07;;;;;;;11.15;4.07;;;;;;;-143.49;100.00;65027.28;5097014;28;20028;-72
2023/07/16 03:08:34;;;;;;;16.23;4.63;;;;;;;-143.49;100.00;65027.28;5096881;28;20052;-72
2023/07/16 03:10:59;;;;;;;13.38;4.13;;;;;;;-143.49;100.00;65027.28;5097114;28;20052;-72
2023/07/16 03:13:24;;;;;;;14.70;4.30;;;;;;;-143.49;100.00;65027.28;5096871;28;20056;-72
2023/07/16 03:15:50;;;;;;;16.33;4.43;;;;;;;-143.49;100.00;65027.28;5096866;28;20020;-72
2023/07/16 03:18:18;;;;;;;14.45;3.92;;;;;;;-143.49;100.00;65027.28;5096953;28;20024;-72
2023/07/16 03:20:43;;;;;;;15.00;4.03;;;;;;;-143.49;100.00;65027.28;5096723;28;20031;-70
2023/07/16 03:23:09;;;;;;;22.88;4.53;;;;;;;-143.49;100.00;65027.28;5096770;28;20020;-71
2023/07/16 03:25:34;;;;;;;16.75;4.28;;;;;;;-143.49;100.00;65027.28;5096797;28;20027;-71
2023/07/16 03:27:59;;;;;;;12.43;4.18;;;;;;;-143.49;100.00;65027.28;5078491;28;20118;-71
2023/07/16 03:30:25;;;;;;;13.02;4.03;;;;;;;-143.49;100.00;65027.28;5096699;28;20467;-70
2023/07/16 03:32:50;;;;;;;13.88;4.13;;;;;;;-143.49;100.00;65027.28;5078420;28;20124;-72
2023/07/16 03:35:15;;;;;;;10.50;3.95;;;;;;;-143.49;100.00;65027.28;5078402;28;20154;-72
2023/07/16 03:37:41;;;;;;;12.73;4.35;;;;;;;-143.49;100.00;65027.28;5096803;28;20026;-73
2023/07/16 03:40:17;;;;;;;17.05;4.13;;;;;;;-143.49;100.00;65027.28;5096583;28;20072;-72
2023/07/16 03:42:43;;;;;;;14.07;3.80;;;;;;;-143.49;100.00;65027.28;5096310;28;20032;-72
2023/07/16 03:45:10;;;;;;;12.00;3.83;;;;;;;-143.49;100.00;65027.28;5078165;28;20024;-72
2023/07/16 03:47:35;;;;;;;14.95;3.58;;;;;;;-143.49;100.00;65027.28;5078200;28;20032;-72
2023/07/16 03:50:00;;;;;;;12.63;3.90;;;;;;;-143.49;100.00;65027.28;5096266;28;20026;-71
2023/07/16 03:52:26;;;;;;;13.07;3.90;;;;;;;-143.49;100.00;65027.28;5096112;28;20034;-71
2023/07/16 03:54:52;;;;;;;18.85;4.40;;;;;;;-143.49;100.00;65027.28;5096274;28;20471;-71
2023/07/16 03:57:17;;;;;;;11.63;4.13;;;;;;;-143.49;100.00;65027.28;5096090;28;20024;-72
2023/07/16 03:59:43;;;;;;;17.52;4.40;;;;;;;-143.49;100.00;65027.28;5095167;28;20506;-71
2023/07/16 04:02:08;;;;;;;10.48;3.47;;;;;;;-143.49;100.00;65027.28;5096181;28;20089;-71
2023/07/16 04:04:34;;;;;;;9.32;4.00;;;;;;;-143.49;100.00;65027.28;5096026;28;20040;-71
2023/07/16 04:06:59;;;;;;;12.00;3.78;;;;;;;-143.49;100.00;65027.28;5077698;28;20020;-71
2023/07/16 04:09:24;;;;;;;13.18;4.10;;;;;;;-143.49;100.00;65027.28;5096061;28;20031;-71
2023/07/16 04:11:50;;;;;;;11.75;4.03;;;;;;;-143.49;100.00;65027.28;5095852;28;20023;-71
2023/07/16 04:14:15;;;;;;;11.13;3.83;;;;;;;-143.49;100.00;65027.28;5095635;28;20460;-71
2023/07/16 04:16:40;;;;;;;11.10;3.70;;;;;;;-143.49;100.00;65027.28;5095924;28;20081;-71
2023/07/16 04:19:07;;;;;;;12.10;4.05;;;;;;;-143.49;100.00;65027.28;5077490;28;20035;-71
2023/07/16 04:21:32;;;;;;;8.90;3.90;;;;;;;-143.49;100.00;65027.28;5077422;28;20031;-71
2023/07/16 04:23:57;;;;;;;13.90;4.20;;;;;;;-143.49;100.00;65027.28;5095712;28;20024;-71
2023/07/16 04:26:23;;;;;;;14.40;4.50;;;;;;;-143.49;100.00;65027.28;5095684;28;20020;-70
2023/07/16 04:28:48;;;;;;;14.27;4.47;;;;;;;-143.49;100.00;65027.28;5095568;28;20016;-71
2023/07/16 04:31:14;;;;;;;15.13;4.57;;;;;;;-143.49;100.00;65027.28;5077324;28;20020;-71
2023/07/16 04:33:39;;;;;;;16.25;4.78;;;;;;;-143.49;100.00;65027.28;5095528;28;20035;-71
2023/07/16 04:36:04;;;;;;;14.02;4.47;;;;;;;-143.49;100.00;65027.28;5095518;28;20020;-71
2023/07/16 04:38:30;;;;;;;14.82;3.97;;;;;;;-143.49;100.00;65027.28;5095374;28;20387;-71
2023/07/16 04:40:55;;;;;;;12.43;4.18;;;;;;;-143.49;100.00;65027.28;5077178;28;20031;-71
2023/07/16 04:43:20;;;;;;;12.48;4.28;;;;;;;-143.49;100.00;65027.28;5095284;28;20055;-71
2023/07/16 04:45:46;;;;;;;15.30;4.53;;;;;;;-143.49;100.00;65027.28;5077060;28;20030;-71
2023/07/16 04:48:12;;;;;;;11.73;4.47;;;;;;;-143.49;100.00;65027.28;5077037;28;20479;-71
2023/07/16 04:50:39;;;;;;;12.07;4.10;;;;;;;-143.49;100.00;65027.28;5095104;28;20035;-71
2023/07/16 04:53:04;;;;;;;15.65;4.45;;;;;;;-143.49;100.00;65027.28;5094988;28;20541;-71
2023/07/16 04:55:35;;;;;;;12.02;4.50;;;;;;;-143.49;100.00;65027.28;5094937;28;20059;-70
2023/07/16 04:58:00;;;;;;;12.32;4.25;;;;;;;-143.49;100.00;65027.28;5094960;28;20027;-71
2023/07/16 05:00:25;;;;;;;11.57;4.32;;;;;;;-143.49;100.00;65027.28;5094805;28;20514;-70
2023/07/16 05:02:51;;;;;;;9.75;4.25;;;;;;;-143.49;100.00;65027.28;5076593;28;20059;-71
2023/07/16 05:05:16;;;;;;;13.15;4.65;;;;;;;-143.49;100.00;65027.28;5094933;28;20052;-71
2023/07/16 05:07:41;;;;;;;11.02;4.57;;;;;;;-143.49;100.00;65027.28;5094609;28;20040;-71
2023/07/16 05:10:07;;;;;;;13.10;4.45;;;;;;;-143.49;100.00;65027.28;5094760;28;20028;-71
2023/07/16 05:12:33;;;;;;;16.05;4.75;;;;;;;-143.49;100.00;65027.28;5094583;28;20027;-71
2023/07/16 05:14:58;;;;;;;10.57;4.47;;;;;;;-143.49;100.00;65027.28;5094644;28;20031;-72
2023/07/16 05:17:23;;;;;;;15.43;4.97;;;;;;;-143.49;100.00;65027.28;5094715;28;20468;-71
2023/07/16 05:19:49;;;;;;;9.60;4.53;;;;;;;-143.49;100.00;65027.28;5094481;28;20380;-71
2023/07/16 05:22:14;;;;;;;13.32;4.57;;;;;;;-143.49;100.00;65027.28;5076309;28;20069;-72
2023/07/16 05:24:39;;;;;;;13.40;4.40;;;;;;;-143.49;100.00;65027.28;5094374;28;20028;-72
2023/07/16 05:27:05;;;;;;;11.85;4.38;;;;;;;-143.49;100.00;65027.28;5094406;28;20031;-72
2023/07/16 05:29:30;;;;;;;13.05;4.43;;;;;;;-143.49;100.00;65027.28;5094487;28;20391;-72
2023/07/16 05:31:56;;;;;;;12.77;4.50;;;;;;;-143.49;100.00;65027.28;5076200;28;20024;-71
2023/07/16 05:34:21;;;;;;;9.35;4.22;;;;;;;-143.49;100.00;65027.28;5094272;28;20093;-71
2023/07/16 05:36:47;;;;;;;10.30;4.25;;;;;;;-143.49;100.00;65027.28;5094332;28;20028;-71
2023/07/16 05:39:12;;;;;;;15.52;4.65;;;;;;;-143.49;100.00;65027.28;5094173;28;20028;-71
2023/07/16 05:41:41;;;;;;;13.77;4.60;;;;;;;-143.49;100.00;65027.28;5094170;28;20110;-72
2023/07/16 05:44:06;;;;;;;18.38;4.65;;;;;;;-143.49;100.00;65027.28;5094168;28;20017;-71
2023/07/16 05:46:33;;;;;;;9.38;4.35;;;;;;;-143.49;100.00;65027.28;5094208;28;20110;-72
2023/07/16 05:48:58;;;;;;;9.00;4.18;;;;;;;-143.49;100.00;65027.28;5093977;28;20059;-71
2023/07/16 05:51:24;;;;;;;10.77;4.60;;;;;;;-143.49;100.00;65027.28;5094007;28;20055;-71
2023/07/16 05:53:49;;;;;;;13.98;4.88;;;;;;;-143.49;100.00;65027.28;5075641;28;20035;-71
2023/07/16 05:56:14;;;;;;;13.30;4.35;;;;;;;-143.49;100.00;65027.28;5075621;28;20035;-71
2023/07/16 05:58:41;;;;;;;9.00;4.15;;;;;;;-143.49;100.00;65027.28;5093798;28;20028;-71
2023/07/16 06:01:06;;;;;;;10.00;4.45;;;;;;;-143.49;100.00;65027.28;5093843;28;20134;-71
2023/07/16 06:03:32;;;;;;;8.93;3.95;;;;;;;-143.49;100.00;65027.28;5093868;28;20050;-71
2023/07/16 06:05:57;;;;;;;11.50;4.32;;;;;;;-143.49;100.00;65027.28;5093633;28;20028;-71
2023/07/16 06:08:24;;;;;;;10.20;4.00;;;;;;;-143.49;100.00;65027.28;5093554;28;20052;-72
2023/07/16 06:10:50;;;;;;;9.95;4.35;;;;;;;-143.49;100.00;65027.28;5093679;28;20024;-72
2023/07/16 06:13:15;;;;;;;11.07;4.10;;;;;;;-143.49;100.00;65027.28;5093590;28;20488;-73
2023/07/16 06:15:40;;;;;;;11.77;4.18;;;;;;;-143.49;100.00;65027.28;5093817;28;20097;-71
2023/07/16 06:18:06;;;;;;;11.02;4.30;;;;;;;-143.49;100.00;65027.28;5093537;28;20103;-71
2023/07/16 06:20:31;;;;;;;13.45;4.05;;;;;;;-143.49;100.00;65027.28;5093494;28;20059;-72
2023/07/16 06:22:57;;;;;;;16.50;4.18;;;;;;;-143.49;100.00;65027.28;5093180;28;20016;-72
2023/07/16 06:25:22;;;;;;;10.23;3.90;;;;;;;-143.49;100.00;65027.28;5093405;28;20028;-72
2023/07/16 06:27:47;;;;;;;11.40;4.10;;;;;;;-143.49;100.00;65027.28;5093457;28;20387;-72
2023/07/16 06:30:13;;;;;;;8.55;4.30;;;;;;;-143.49;100.00;65027.28;5093433;28;20032;-72
2023/07/16 06:32:38;;;;;;;9.20;4.30;;;;;;;-143.49;100.00;65027.28;5093235;28;20027;-71
2023/07/16 06:35:04;;;;;;;11.23;4.40;;;;;;;-143.49;100.00;65027.28;5093390;28;20055;-71
2023/07/16 06:37:29;;;;;;;12.43;4.10;;;;;;;-143.49;100.00;65027.28;5093320;28;20031;-71
2023/07/16 06:39:54;;;;;;;13.07;4.75;;;;;;;-143.49;100.00;65027.28;5093336;28;20024;-72
2023/07/16 06:42:20;;;;;;;13.05;4.40;;;;;;;-143.49;100.00;65027.28;5093360;28;20031;-72
2023/07/16 06:44:45;;;;;;;10.40;4.35;;;;;;;-143.49;100.00;65027.28;5093254;28;20031;-72
2023/07/16 06:47:11;;;;;;;12.68;4.85;;;;;;;-143.49;100.00;65027.28;5093402;28;20024;-72
2023/07/16 06:49:36;;;;;;;14.30;4.70;;;;;;;-143.49;100.00;65027.28;5075073;28;20043;-72
2023/07/16 06:52:04;;;;;;;11.80;4.53;;;;;;;-143.49;100.00;65027.28;5093367;28;20027;-72
2023/07/16 06:54:29;;;;;;;12.38;4.57;;;;;;;-143.49;100.00;65027.28;5093325;28;20016;-72
2023/07/16 06:56:55;;;;;;;10.02;5.13;;;;;;;-143.49;100.00;65027.28;5093473;28;20022;-72
2023/07/16 06:59:20;;;;;;;11.68;4.85;;;;;;;-143.49;100.00;65027.28;5093069;28;20057;-72
2023/07/16 07:01:45;;;;;;;11.45;4.80;;;;;;;-143.49;100.00;65027.28;5093081;28;20031;-73
2023/07/16 07:04:11;;;;;;;9.38;4.30;;;;;;;-143.49;100.00;65027.28;5092961;28;20016;-73
2023/07/16 07:06:36;;;;;;;10.57;4.82;;;;;;;-143.49;100.00;65027.28;5092968;28;20387;-72
2023/07/16 07:09:01;;;;;;;15.30;4.85;;;;;;;-143.49;100.00;65027.28;5092889;28;20044;-73
2023/07/16 07:11:27;;;;;;;15.95;5.15;;;;;;;-143.49;100.00;65027.28;5092889;28;20528;-72
2023/07/16 07:13:52;;;;;;;14.32;4.72;;;;;;;-143.49;100.00;65027.28;5092831;28;20090;-72
2023/07/16 07:16:18;;;;;;;13.15;4.72;;;;;;;-143.49;100.00;65027.28;5092958;28;20446;-72
2023/07/16 07:18:43;;;;;;;11.70;4.78;;;;;;;-143.49;100.00;65027.28;5074617;28;20028;-72
2023/07/16 07:21:09;;;;;;;13.30;4.70;;;;;;;-143.49;100.00;65027.28;5092957;28;20032;-72
2023/07/16 07:23:34;;;;;;;11.23;5.03;;;;;;;-143.49;100.00;65027.28;5093383;28;20460;-72
2023/07/16 07:25:59;;;;;;;14.68;5.25;;;;;;;-143.49;100.00;65027.28;5093817;28;20024;-72
2023/07/16 07:28:25;;;;;;;11.32;4.30;;;;;;;-143.49;100.00;65027.28;5092826;28;20031;-73
2023/07/16 07:30:51;;;;;;;13.75;4.50;;;;;;;-143.49;100.00;65027.28;5093061;28;20024;-72
2023/07/16 07:33:16;;;;;;;11.90;4.55;;;;;;;-143.49;100.00;65027.28;5074605;28;20046;-72
2023/07/16 07:35:41;;;;;;;12.15;4.55;;;;;;;-143.49;100.00;65027.28;5095867;28;20038;-72
2023/07/16 07:38:07;;;;;;;13.52;4.95;;;;;;;-143.49;100.00;65027.28;5096950;28;20027;-73
2023/07/16 07:40:32;;;;;;;11.63;4.60;;;;;;;-143.49;100.00;65027.28;5096531;28;20031;-71
2023/07/16 07:42:57;;;;;;;14.27;4.70;;;;;;;-143.49;100.00;65027.28;5096394;28;20055;-70
2023/07/16 07:45:24;;;;;;;15.23;5.43;;;;;;;-143.49;100.00;65027.28;5078972;28;20040;-71
2023/07/16 07:47:49;;;;;;;9.20;4.80;;;;;;;-143.49;100.00;65027.28;5096284;28;20031;-71
2023/07/16 07:50:15;;;;;;;14.25;5.47;;;;;;;-143.49;100.00;65027.28;5096555;28;20399;-71
2023/07/16 07:52:40;;;;;;;14.10;5.15;;;;;;;-143.49;100.00;65027.28;5096197;28;20024;-71
2023/07/16 07:55:06;;;;;;;13.02;5.28;;;;;;;-143.49;100.00;65027.28;5096194;28;20484;-71
2023/07/16 07:57:31;;;;;;;13.40;5.05;;;;;;;-143.49;100.00;65027.28;5077901;28;20024;-72
2023/07/16 07:59:57;;;;;;;11.43;5.25;;;;;;;-143.49;100.00;65027.28;5078053;28;20471;-72
2023/07/16 08:02:26;;;;;;;15.70;5.38;;;;;;;-143.49;100.00;65027.28;5096422;28;20024;-72
2023/07/16 08:04:55;;;;;;;14.10;5.10;;;;;;;-143.49;100.00;65027.28;5095985;28;20104;-72
2023/07/16 08:07:22;;;;;;;11.38;4.88;;;;;;;-143.49;100.00;65027.28;5095973;28;20059;-71
2023/07/16 08:09:47;;;;;;;12.40;5.18;;;;;;;-143.49;100.00;65027.28;5096016;28;20043;-71
2023/07/16 08:12:13;;;;;;;12.45;4.90;;;;;;;-143.49;100.00;65027.28;5095954;28;20540;-71
2023/07/16 08:14:38;;;;;;;12.82;4.85;;;;;;;-143.49;100.00;65027.28;5095832;28;20464;-72
2023/07/16 08:17:04;;;;;;;16.02;5.30;;;;;;;-143.49;100.00;65027.28;5095792;28;20024;-71
2023/07/16 08:19:30;;;;;;;12.73;4.95;;;;;;;-143.49;100.00;65027.28;5095742;28;20559;-71
2023/07/16 08:21:55;;;;;;;18.63;5.43;;;;;;;-143.49;100.00;65027.28;5095709;28;20099;-72
2023/07/16 08:24:20;;;;;;;15.38;4.95;;;;;;;-143.49;100.00;65027.28;5095640;28;20016;-73
2023/07/16 08:26:46;;;;;;;11.50;5.00;;;;;;;-143.49;100.00;65027.28;5077524;28;20078;-73
2023/07/16 08:29:11;;;;;;;10.38;4.68;;;;;;;-143.49;100.00;65027.28;5095922;28;20032;-73
2023/07/16 08:31:36;;;;;;;16.15;5.47;;;;;;;-143.49;100.00;65027.28;5095555;28;20085;-72
2023/07/16 08:34:02;;;;;;;12.05;4.65;;;;;;;-143.49;100.00;65027.28;5077253;28;20048;-72
2023/07/16 08:36:27;;;;;;;12.45;5.10;;;;;;;-143.49;100.00;65027.28;5095397;28;20020;-73
2023/07/16 08:38:53;;;;;;;11.82;5.32;;;;;;;-143.49;100.00;65027.28;5095382;28;20051;-72
2023/07/16 08:41:18;;;;;;;11.88;5.28;;;;;;;-143.49;100.00;65027.28;5095356;28;20054;-72
2023/07/16 08:43:47;;;;;;;12.18;5.18;;;;;;;-143.49;100.00;65027.28;5077011;28;20062;-71
2023/07/16 08:46:15;;;;;;;18.35;5.40;;;;;;;-143.49;100.00;65027.28;5076575;28;20019;-72
2023/07/16 08:48:41;;;;;;;19.17;5.43;;;;;;;-143.49;100.00;65027.28;5095053;28;20024;-71
2023/07/16 08:51:09;;;;;;;14.73;5.18;;;;;;;-143.49;100.00;65027.28;5095230;28;20035;-71
2023/07/16 08:53:35;;;;;;;12.68;5.07;;;;;;;-143.49;100.00;65027.28;5095002;28;20024;-71
2023/07/16 08:56:02;;;;;;;12.13;4.65;;;;;;;-143.49;100.00;65027.28;5095193;28;20490;-72
2023/07/16 08:58:28;;;;;;;14.05;4.78;;;;;;;-143.49;100.00;65027.28;5094909;28;20510;-71
2023/07/16 09:00:55;;;;;;;12.18;4.40;;;;;;;-143.49;100.00;65027.28;5094974;28;20099;-72
2023/07/16 09:03:20;;;;;;;12.15;4.53;;;;;;;-143.49;100.00;65027.28;5094885;28;20019;-72
2023/07/16 09:05:46;;;;;;;15.75;4.90;;;;;;;-143.49;100.00;65027.28;5095206;28;20433;-71
2023/07/16 09:08:13;;;;;;;11.25;4.35;;;;;;;-143.49;100.00;65027.28;5094606;28;20381;-71
2023/07/16 09:10:40;;;;;;;13.85;4.85;;;;;;;-143.49;100.00;65027.28;5094639;28;20028;-71
2023/07/16 09:13:05;;;;;;;13.27;4.53;;;;;;;-143.49;100.00;65027.28;5094661;28;20020;-72
2023/07/16 09:15:33;;;;;;;14.88;5.03;;;;;;;-143.49;100.00;65027.28;5094676;28;20016;-71
2023/07/16 09:17:59;;;;;;;10.93;5.00;;;;;;;-143.49;100.00;65027.28;5094417;28;20071;-72
2023/07/16 09:20:24;;;;;;;13.73;5.07;;;;;;;-143.49;100.00;65027.28;5076372;28;20052;-72
2023/07/16 09:22:53;;;;;;;16.55;5.10;;;;;;;-143.49;100.00;65027.28;5076330;28;20028;-72
2023/07/16 09:25:18;;;;;;;12.20;5.00;;;;;;;-143.49;100.00;65027.28;5094529;28;20024;-73
2023/07/16 09:27:48;;;;;;;13.05;4.68;;;;;;;-143.49;100.00;65027.28;5076485;28;20399;-72
2023/07/16 09:30:16;;;;;;;14.15;5.03;;;;;;;-143.49;100.00;65027.28;5094588;28;20116;-72
2023/07/16 09:32:42;;;;;;;16.05;5.25;;;;;;;-143.49;100.00;65027.28;5095827;28;20538;-72
2023/07/16 09:35:10;;;;;;;12.52;4.97;;;;;;;-143.49;100.00;65027.28;5094924;28;20020;-72
2023/07/16 09:37:40;;;;;;;16.33;5.20;;;;;;;-143.49;100.00;65027.28;5095712;28;20111;-72
2023/07/16 09:40:09;;;;;;;14.30;4.65;;;;;;;-143.49;100.00;65027.28;5076963;28;20031;-72
2023/07/16 09:42:39;;;;;;;15.43;4.82;;;;;;;-143.49;100.00;65027.28;5093654;28;20077;-72
2023/07/16 09:45:07;;;;;;;13.30;4.88;;;;;;;-143.49;100.00;65027.28;5076872;28;20030;-72
2023/07/16 09:47:33;;;;;;;12.30;4.65;;;;;;;-143.49;100.00;65027.28;5077652;28;20055;-71
2023/07/16 09:49:59;;;;;;;13.68;4.72;;;;;;;-143.49;100.00;65027.28;5094840;28;20054;-72
2023/07/16 09:52:26;;;;;;;12.13;4.90;;;;;;;-143.49;100.00;65027.28;5093816;28;20024;-72
2023/07/16 09:54:54;;;;;;;11.98;4.90;;;;;;;-143.49;100.00;65027.28;5075824;28;20461;-72
2023/07/16 09:57:21;;;;;;;11.02;4.93;;;;;;;-143.49;100.00;65027.28;5093417;28;20020;-72
2023/07/16 09:59:48;;;;;;;13.15;4.75;;;;;;;-143.49;100.00;65027.28;5075598;28;20504;-72
2023/07/16 10:02:14;;;;;;;14.30;4.75;;;;;;;-143.49;100.00;65027.28;5075952;28;20024;-72
2023/07/16 10:04:40;;;;;;;12.55;4.82;;;;;;;-143.49;100.00;65027.28;5094094;28;20031;-72
2023/07/16 10:07:05;;;;;;;13.30;4.55;;;;;;;-143.49;100.00;65027.28;5093573;28;20482;-72
2023/07/16 10:09:32;;;;;;;10.65;4.53;;;;;;;-143.49;100.00;65027.28;5075602;28;20119;-72
2023/07/16 10:12:08;;;;;;;14.38;4.82;;;;;;;-143.49;100.00;65027.28;5075410;28;20020;-72
2023/07/16 10:14:42;;;;;;;11.80;4.45;;;;;;;-143.49;100.00;65027.28;5075726;28;20134;-72
2023/07/16 10:17:07;;;;;;;12.93;4.82;;;;;;;-143.49;100.00;65027.28;5093918;28;20015;-73
2023/07/16 10:19:50;;;;;;;12.32;4.70;;;;;;;-143.49;100.00;65027.28;5093609;28;20479;-72
2023/07/16 10:22:15;;;;;;;16.27;5.07;;;;;;;-143.49;100.00;65027.28;5093480;28;20466;-72
2023/07/16 10:24:40;;;;;;;11.85;4.85;;;;;;;-143.49;100.00;65027.28;5093516;28;20020;-71
2023/07/16 10:27:06;;;;;;;9.43;4.20;;;;;;;-143.49;100.00;65027.28;5093811;28;20016;-72
2023/07/16 10:29:32;;;;;;;16.13;4.30;;;;;;;-143.49;100.00;65027.28;5093395;28;20108;-72
2023/07/16 10:31:58;;;;;;;10.40;4.40;;;;;;;-143.49;100.00;65027.28;5075155;28;20475;-72
2023/07/16 10:34:26;;;;;;;12.45;4.20;;;;;;;-143.49;100.00;65027.28;5093319;28;20111;-72
2023/07/16 10:36:51;;;;;;;9.25;4.28;;;;;;;-143.49;100.00;65027.28;5074946;28;20028;-72
2023/07/16 10:39:17;;;;;;;10.93;4.15;;;;;;;-143.49;100.00;65027.28;5074945;28;20341;-72
2023/07/16 10:41:42;;;;;;;12.73;4.82;;;;;;;-143.49;100.00;65027.28;5092997;28;20085;-72
2023/07/16 10:44:08;;;;;;;10.13;4.50;;;;;;;-143.49;100.00;65027.28;5093143;28;20016;-72
2023/07/16 10:46:34;;;;;;;11.23;4.50;;;;;;;-143.49;100.00;65027.28;5093057;28;20020;-73
2023/07/16 10:48:59;;;;;;;8.65;4.00;;;;;;;-143.49;100.00;65027.28;5092953;28;20031;-72
2023/07/16 10:51:26;;;;;;;9.00;4.05;;;;;;;-143.49;100.00;65027.28;5093044;28;20023;-72
2023/07/16 10:53:51;;;;;;;9.40;4.25;;;;;;;-143.49;100.00;65027.28;5075081;28;20077;-72
2023/07/16 10:56:17;;;;;;;12.35;4.43;;;;;;;-143.49;100.00;65027.28;5092406;28;20095;-72